Time;durP1;ratioP1;P1;durP2;ratioP2;P2;SDS_P1;SDS_P2;PMS_P1;PMS_P2;Temp;Humidity;BMP_temperature;BMP_pressure;BME280_temperature;BME280_humidity;BME280_pressure;Samples;Min_cycle;Max_cycle;Signal;HPM_P1;HPM_P2
2023/02/18 00:01:28;;;;;;;4.32;1.63;;;11.00;87.00;;;;;;5094248;28;20116;-79
2023/02/18 00:03:53;;;;;;;3.78;1.50;;;11.00;87.00;;;;;;5094030;28;20047;-78
2023/02/18 00:06:24;;;;;;;3.30;1.42;;;11.00;87.00;;;;;;5074167;28;20514;-78
2023/02/18 00:08:50;;;;;;;3.30;1.50;;;11.00;87.00;;;;;;5075381;28;20059;-78
2023/02/18 00:11:18;;;;;;;2.85;1.55;;;11.00;87.00;;;;;;5075525;28;20028;-79
2023/02/18 00:13:48;;;;;;;3.40;1.75;;;11.00;87.00;;;;;;5073649;28;20034;-79
2023/02/18 00:16:13;;;;;;;2.97;1.55;;;11.00;87.00;;;;;;5093483;28;20020;-79
2023/02/18 00:18:39;;;;;;;3.28;1.30;;;11.00;87.00;;;;;;5093715;28;20378;-78
2023/02/18 00:21:06;;;;;;;3.92;1.63;;;11.00;87.00;;;;;;5075402;28;20028;-79
2023/02/18 00:23:33;;;;;;;3.60;1.60;;;11.00;87.00;;;;;;5074147;28;20038;-78
2023/02/18 00:26:00;;;;;;;3.10;1.45;;;10.90;87.00;;;;;;5073957;28;20028;-78
2023/02/18 00:28:26;;;;;;;2.40;1.40;;;11.00;87.10;;;;;;5092121;28;20054;-78
2023/02/18 00:30:52;;;;;;;2.95;1.40;;;10.90;87.10;;;;;;5074167;28;20020;-79
2023/02/18 00:33:17;;;;;;;4.20;1.45;;;10.90;87.00;;;;;;5092167;28;20488;-78
2023/02/18 00:35:43;;;;;;;2.42;1.50;;;11.00;87.10;;;;;;5092680;28;20031;-78
2023/02/18 00:38:08;;;;;;;3.78;1.48;;;11.00;87.10;;;;;;5074826;28;20029;-79
2023/02/18 00:40:37;;;;;;;3.00;1.60;;;11.00;87.10;;;;;;5073440;28;20477;-78
2023/02/18 00:43:02;;;;;;;2.22;1.30;;;11.00;87.10;;;;;;5091311;28;20081;-79
2023/02/18 00:45:28;;;;;;;2.97;1.42;;;10.90;87.00;;;;;;5091278;28;20024;-77
2023/02/18 00:47:53;;;;;;;2.65;1.25;;;10.90;87.00;;;;;;5073280;28;20024;-78
2023/02/18 00:50:19;;;;;;;3.03;1.45;;;11.00;87.10;;;;;;5073477;28;20035;-79
2023/02/18 00:52:44;;;;;;;3.20;1.50;;;10.90;87.00;;;;;;5091670;28;20043;-78
2023/02/18 00:55:10;;;;;;;3.08;1.52;;;10.90;87.00;;;;;;5105184;28;20022;-78
2023/02/18 00:57:35;;;;;;;3.22;1.50;;;10.90;87.00;;;;;;5113157;28;20031;-78
2023/02/18 01:00:01;;;;;;;3.10;1.40;;;11.00;87.10;;;;;;5094032;28;20453;-78
2023/02/18 01:02:26;;;;;;;3.63;1.70;;;11.00;87.10;;;;;;5094334;28;20023;-78
2023/02/18 01:04:52;;;;;;;2.92;1.27;;;11.00;87.10;;;;;;5110292;28;20487;-78
2023/02/18 01:07:18;;;;;;;3.30;1.60;;;10.90;87.10;;;;;;5093099;28;20582;-79
2023/02/18 01:09:43;;;;;;;3.45;1.60;;;11.00;87.10;;;;;;5112039;28;20048;-76
2023/02/18 01:12:08;;;;;;;3.10;1.67;;;10.90;87.10;;;;;;5113838;28;20063;-78
2023/02/18 01:14:34;;;;;;;3.97;1.77;;;11.00;87.10;;;;;;5115359;28;20039;-79
2023/02/18 01:16:59;;;;;;;3.58;1.60;;;11.00;87.10;;;;;;5115573;28;20027;-78
2023/02/18 01:19:25;;;;;;;4.22;1.75;;;11.00;87.20;;;;;;5097492;28;20030;-78
2023/02/18 01:21:50;;;;;;;2.40;1.40;;;10.90;87.10;;;;;;5115577;28;20110;-79
2023/02/18 01:24:16;;;;;;;3.80;1.67;;;10.90;87.10;;;;;;5115954;28;20027;-79
2023/02/18 01:26:41;;;;;;;3.13;1.50;;;10.90;87.10;;;;;;5115970;28;20118;-78
2023/02/18 01:29:07;;;;;;;3.75;1.60;;;11.00;87.10;;;;;;5114970;28;20042;-77
2023/02/18 01:31:32;;;;;;;3.63;1.60;;;10.90;87.10;;;;;;5115301;28;20032;-79
2023/02/18 01:33:58;;;;;;;3.22;1.50;;;10.90;87.10;;;;;;5097706;28;20024;-78
2023/02/18 01:36:23;;;;;;;3.85;1.70;;;10.90;87.10;;;;;;5096564;28;20057;-78
2023/02/18 01:38:49;;;;;;;4.90;1.92;;;10.90;87.10;;;;;;5114881;28;20106;-78
2023/02/18 01:41:14;;;;;;;4.18;1.75;;;10.90;87.10;;;;;;5096965;28;20027;-78
2023/02/18 01:43:40;;;;;;;3.63;1.58;;;11.00;87.10;;;;;;5097525;28;20027;-79
2023/02/18 01:46:20;;;;;;;3.92;1.75;;;11.00;87.10;;;;;;5118923;28;20023;-79
2023/02/18 01:48:59;;;;;;;3.58;1.55;;;10.90;87.10;;;;;;5099127;28;20070;-78
2023/02/18 01:51:49;;;;;;;3.15;1.60;;;10.90;87.60;;;;;;5096795;28;20028;-77
2023/02/18 01:54:30;;;;;;;3.78;1.88;;;10.90;87.10;;;;;;5114241;28;20024;-79
2023/02/18 01:57:01;;;;;;;2.88;1.45;;;10.90;87.10;;;;;;5100238;28;20126;-79
2023/02/18 01:59:31;;;;;;;4.60;2.22;;;11.00;87.20;;;;;;5118807;28;20102;-79
2023/02/18 02:01:57;;;;;;;3.80;1.77;;;11.00;87.10;;;;;;5099787;28;20555;-79
2023/02/18 02:04:23;;;;;;;3.95;1.90;;;11.00;87.10;;;;;;5118216;28;20078;-79
2023/02/18 02:06:49;;;;;;;4.07;1.80;;;10.90;87.10;;;;;;5099911;28;20027;-79
2023/02/18 02:09:17;;;;;;;4.60;2.10;;;10.90;87.10;;;;;;5099136;28;20061;-79
2023/02/18 02:12:00;;;;;;;5.03;2.03;;;11.00;87.20;;;;;;5099048;28;20490;-78
2023/02/18 02:14:52;;;;;;;3.70;1.85;;;11.00;87.10;;;;;;5099153;28;20043;-79
2023/02/18 02:17:33;;;;;;;5.18;2.20;;;10.90;87.10;;;;;;5098155;28;20028;-78
2023/02/18 02:20:07;;;;;;;3.67;1.98;;;10.90;87.10;;;;;;5114526;28;20056;-80
2023/02/18 02:22:48;;;;;;;4.90;2.30;;;11.00;87.20;;;;;;5116839;28;20023;-79
2023/02/18 02:25:38;;;;;;;3.97;2.00;;;11.00;87.20;;;;;;5098113;28;20026;-79
2023/02/18 02:28:29;;;;;;;4.88;2.25;;;11.00;87.20;;;;;;5116592;28;20020;-79
2023/02/18 02:31:07;;;;;;;4.38;2.05;;;11.00;87.20;;;;;;5114853;28;20384;-79
2023/02/18 02:33:48;;;;;;;4.07;2.10;;;11.00;87.20;;;;;;5097522;28;20030;-79
2023/02/18 02:36:40;;;;;;;5.35;2.53;;;11.00;87.20;;;;;;5099899;28;20118;-79
2023/02/18 02:39:15;;;;;;;4.55;2.35;;;11.00;87.10;;;;;;5118229;28;20071;-79
2023/02/18 02:45:35;;;;;;;4.63;2.22;;;10.90;87.10;;;;;;5010802;28;20073;-76
2023/02/18 02:48:44;;;;;;;4.10;2.25;;;11.00;87.10;;;;;;5015998;28;20088;-78
2023/02/18 02:51:21;;;;;;;4.50;2.22;;;11.00;87.10;;;;;;5098383;28;20024;-79
2023/02/18 02:53:46;;;;;;;5.18;2.65;;;11.00;87.10;;;;;;5116964;28;20053;-79
2023/02/18 02:56:23;;;;;;;4.28;2.20;;;11.00;87.10;;;;;;5114518;28;20019;-79
2023/02/18 02:58:59;;;;;;;4.70;2.60;;;11.00;87.10;;;;;;5097977;28;20022;-79
2023/02/18 03:02:04;;;;;;;4.70;2.38;;;11.00;87.10;;;;;;5117080;28;20055;-78
2023/02/18 03:04:40;;;;;;;4.55;2.15;;;11.00;87.10;;;;;;5097794;28;20080;-79
2023/02/18 03:07:37;;;;;;;4.65;2.28;;;11.00;87.10;;;;;;5097377;28;20032;-79
2023/02/18 03:10:10;;;;;;;4.57;2.35;;;11.00;87.10;;;;;;5097713;28;20032;-78
2023/02/18 03:13:12;;;;;;;4.55;2.30;;;11.00;87.10;;;;;;5097642;28;20031;-79
2023/02/18 03:15:52;;;;;;;4.55;2.28;;;11.00;87.10;;;;;;5042111;28;20023;-79
2023/02/18 03:18:33;;;;;;;4.80;2.28;;;11.00;87.20;;;;;;5116021;28;20078;-79
2023/02/18 03:21:04;;;;;;;;;;;11.00;87.20;;;;;;5115881;28;20363;-77
2023/02/18 03:23:37;;;;;;;4.93;2.67;;;11.00;87.20;;;;;;5113130;28;19947;-79
2023/02/18 03:26:07;;;;;;;4.90;2.60;;;10.90;87.10;;;;;;5114822;28;20051;-79
2023/02/18 03:28:34;;;;;;;5.28;2.50;;;11.00;87.20;;;;;;5095494;28;20506;-79
2023/02/18 03:31:14;;;;;;;4.35;2.50;;;11.00;87.20;;;;;;5114840;28;20031;-79
2023/02/18 03:33:46;;;;;;;4.47;2.63;;;11.00;87.10;;;;;;5113847;28;20144;-79
2023/02/18 03:36:12;;;;;;;;;;;11.00;87.10;;;;;;5115145;28;20015;-78
2023/02/18 03:38:58;;;;;;;5.03;2.55;;;11.00;87.20;;;;;;5114282;28;19911;-78
2023/02/18 03:41:23;;;;;;;5.40;2.97;;;11.00;87.10;;;;;;5114981;28;20023;-79
2023/02/18 03:43:59;;;;;;;4.68;2.53;;;11.00;87.20;;;;;;5114573;28;20034;-79
2023/02/18 03:46:26;;;;;;;5.60;2.90;;;11.00;87.10;;;;;;5095445;28;20032;-79
2023/02/18 03:48:52;;;;;;;5.85;2.90;;;11.00;87.10;;;;;;5095505;28;20032;-79
2023/02/18 03:51:18;;;;;;;5.47;2.90;;;11.00;87.10;;;;;;5114131;28;20043;-79
2023/02/18 03:53:44;;;;;;;5.30;3.03;;;11.00;87.20;;;;;;5114106;28;20027;-77
2023/02/18 03:56:09;;;;;;;5.13;2.97;;;11.00;87.20;;;;;;5113778;28;20023;-79
2023/02/18 03:58:35;;;;;;;5.15;2.85;;;10.90;87.10;;;;;;5114077;28;20032;-79
2023/02/18 04:01:00;;;;;;;5.57;3.13;;;11.00;87.20;;;;;;5112840;28;20024;-79
2023/02/18 04:03:26;;;;;;;5.90;2.97;;;11.00;87.20;;;;;;5112669;28;20503;-79
2023/02/18 04:05:51;;;;;;;5.65;3.08;;;10.90;87.10;;;;;;5113566;28;20027;-78
2023/02/18 04:08:17;;;;;;;5.13;3.00;;;11.00;87.20;;;;;;5113374;28;20505;-79
2023/02/18 04:10:42;;;;;;;5.55;3.33;;;11.00;87.20;;;;;;5094909;28;20027;-78
2023/02/18 04:13:08;;;;;;;4.90;2.90;;;11.00;87.20;;;;;;5113355;28;20106;-78
2023/02/18 04:15:34;;;;;;;5.35;2.92;;;11.00;87.10;;;;;;5094760;28;20015;-78
2023/02/18 04:17:59;;;;;;;5.90;3.08;;;11.00;87.20;;;;;;5112873;28;20035;-78
2023/02/18 04:20:25;;;;;;;6.55;3.60;;;10.90;87.20;;;;;;5095023;28;20476;-79
2023/02/18 04:22:50;;;;;;;5.88;3.15;;;11.00;87.20;;;;;;5112184;28;20023;-79
2023/02/18 04:25:16;;;;;;;5.70;3.17;;;11.00;87.20;;;;;;5112679;28;20074;-78
2023/02/18 04:27:41;;;;;;;5.68;3.20;;;11.00;87.20;;;;;;5113066;28;20032;-79
2023/02/18 04:30:07;;;;;;;5.47;3.15;;;11.00;87.20;;;;;;5112690;28;20035;-78
2023/02/18 04:32:33;;;;;;;6.03;3.45;;;11.00;87.10;;;;;;5094622;28;20055;-78
2023/02/18 04:34:58;;;;;;;5.70;3.33;;;11.00;87.10;;;;;;5112683;28;20451;-78
2023/02/18 04:37:24;;;;;;;6.03;3.50;;;11.00;87.10;;;;;;5112805;28;20099;-79
2023/02/18 04:39:49;;;;;;;5.63;3.30;;;11.00;87.20;;;;;;5111808;28;20050;-78
2023/02/18 04:42:15;;;;;;;6.40;3.60;;;11.00;87.20;;;;;;5112729;28;20055;-78
2023/02/18 04:44:40;;;;;;;5.72;3.42;;;11.00;87.20;;;;;;5111346;28;20514;-78
2023/02/18 04:47:06;;;;;;;6.13;3.58;;;11.00;87.20;;;;;;5077613;28;20028;-77
2023/02/18 04:49:32;;;;;;;4.78;2.88;;;11.00;87.20;;;;;;5103789;28;20464;-78
2023/02/18 04:51:58;;;;;;;5.45;3.30;;;11.00;87.20;;;;;;5114169;28;20027;-78
2023/02/18 04:54:23;;;;;;;6.05;3.50;;;11.00;87.10;;;;;;5115717;28;20046;-78
2023/02/18 04:56:49;;;;;;;5.55;3.28;;;11.00;87.10;;;;;;5116620;28;20020;-78
2023/02/18 04:59:14;;;;;;;5.93;3.30;;;11.00;87.10;;;;;;5116183;28;20031;-78
2023/02/18 05:01:40;;;;;;;6.10;3.42;;;11.00;87.10;;;;;;5116568;28;20028;-76
2023/02/18 05:04:05;;;;;;;5.97;3.15;;;11.00;87.10;;;;;;5097092;28;20093;-78
2023/02/18 05:06:31;;;;;;;6.05;3.47;;;11.00;87.20;;;;;;5116179;28;20476;-79
2023/02/18 05:08:57;;;;;;;5.57;3.38;;;11.00;87.10;;;;;;5116570;28;20061;-79
2023/02/18 05:11:22;;;;;;;5.60;3.30;;;11.00;87.10;;;;;;5118929;28;20049;-79
2023/02/18 05:13:48;;;;;;;5.90;3.35;;;11.00;87.10;;;;;;5120245;28;20024;-79
2023/02/18 05:16:13;;;;;;;5.80;3.30;;;11.00;87.10;;;;;;5119649;28;20380;-79
2023/02/18 05:18:39;;;;;;;5.60;3.38;;;11.00;87.10;;;;;;5118774;28;20522;-79
2023/02/18 05:21:05;;;;;;;6.50;3.58;;;11.00;87.10;;;;;;5119284;28;20468;-79
2023/02/18 05:23:30;;;;;;;6.88;3.30;;;11.00;87.10;;;;;;5119722;28;20030;-79
2023/02/18 05:25:56;;;;;;;5.90;3.42;;;11.00;87.10;;;;;;5118397;28;20024;-79
2023/02/18 05:28:21;;;;;;;5.85;3.30;;;11.00;87.20;;;;;;5098096;28;20127;-79
2023/02/18 05:30:47;;;;;;;5.43;3.22;;;11.00;87.10;;;;;;5115984;28;20035;-79
2023/02/18 05:33:12;;;;;;;6.28;3.50;;;11.00;87.20;;;;;;5111040;28;20027;-79
2023/02/18 05:35:38;;;;;;;5.97;3.55;;;11.00;87.10;;;;;;5100403;28;20391;-77
2023/02/18 05:38:04;;;;;;;5.30;3.20;;;11.00;87.20;;;;;;5096726;28;20024;-79
2023/02/18 05:40:29;;;;;;;6.35;3.53;;;11.00;87.20;;;;;;5098967;28;20111;-79
2023/02/18 05:42:55;;;;;;;5.85;3.50;;;11.00;87.10;;;;;;5095083;28;20461;-78
2023/02/18 05:45:20;;;;;;;5.43;2.95;;;11.00;87.10;;;;;;5077082;28;20028;-79
2023/02/18 05:47:46;;;;;;;5.78;3.42;;;11.00;87.20;;;;;;5113893;28;20391;-79
2023/02/18 05:50:12;;;;;;;6.47;3.67;;;11.00;87.20;;;;;;5117836;28;20024;-80
2023/02/18 05:52:37;;;;;;;5.18;3.10;;;11.00;87.20;;;;;;5117993;28;20024;-79
2023/02/18 05:55:03;;;;;;;6.38;3.53;;;11.00;87.10;;;;;;5117428;28;20099;-79
2023/02/18 05:57:29;;;;;;;5.35;3.17;;;11.00;87.10;;;;;;5115957;28;20032;-78
2023/02/18 05:59:54;;;;;;;6.00;3.30;;;11.00;87.10;;;;;;5117383;28;20063;-78
2023/02/18 06:02:20;;;;;;;6.13;3.22;;;11.00;87.10;;;;;;5100788;28;20019;-79
2023/02/18 06:04:45;;;;;;;5.93;3.40;;;11.00;87.10;;;;;;5099718;28;20084;-79
2023/02/18 06:07:11;;;;;;;5.45;3.30;;;11.00;87.20;;;;;;5118756;28;20074;-79
2023/02/18 06:09:36;;;;;;;5.28;3.13;;;11.00;87.10;;;;;;5118638;28;20412;-78
2023/02/18 06:12:02;;;;;;;5.68;3.03;;;11.00;87.10;;;;;;5097306;28;20051;-78
2023/02/18 06:14:27;;;;;;;5.78;3.10;;;11.00;87.10;;;;;;5115323;28;20038;-78
2023/02/18 06:16:53;;;;;;;5.20;3.00;;;11.00;87.10;;;;;;5095687;28;20110;-79
2023/02/18 06:19:18;;;;;;;7.05;3.38;;;11.00;87.10;;;;;;5099264;28;20105;-79
2023/02/18 06:21:44;;;;;;;5.63;3.05;;;11.00;87.10;;;;;;5099965;28;20539;-82
2023/02/18 06:24:09;;;;;;;5.85;3.53;;;11.00;87.10;;;;;;5100695;28;20119;-79
2023/02/18 06:26:35;;;;;;;6.00;3.40;;;11.00;87.10;;;;;;5099468;28;20380;-79
2023/02/18 06:29:00;;;;;;;5.20;3.00;;;11.00;87.10;;;;;;5116491;28;20034;-79
2023/02/18 06:31:26;;;;;;;6.75;3.45;;;11.00;87.10;;;;;;5117473;28;20027;-79
2023/02/18 06:33:51;;;;;;;5.50;3.20;;;11.00;87.20;;;;;;5117163;28;20035;-77
2023/02/18 06:36:17;;;;;;;5.57;3.17;;;11.00;87.20;;;;;;5091152;28;20024;-77
2023/02/18 06:38:44;;;;;;;5.18;3.13;;;11.00;87.20;;;;;;5090533;28;20506;-78
2023/02/18 06:41:10;;;;;;;5.63;3.03;;;11.00;87.20;;;;;;5110133;28;20378;-79
2023/02/18 06:43:36;;;;;;;5.78;3.15;;;11.00;87.20;;;;;;5083446;28;20074;-76
2023/02/18 06:46:02;;;;;;;6.20;3.50;;;11.00;87.20;;;;;;5073429;28;20480;-80
2023/02/18 06:48:27;;;;;;;5.10;2.80;;;11.00;87.20;;;;;;5076013;28;20061;-78
2023/02/18 06:50:53;;;;;;;5.55;3.20;;;11.00;87.20;;;;;;5109739;28;20059;-77
2023/02/18 06:53:19;;;;;;;5.28;2.95;;;11.00;87.20;;;;;;5110076;28;20023;-77
2023/02/18 06:55:44;;;;;;;5.60;3.22;;;11.00;87.20;;;;;;5090636;28;20024;-77
2023/02/18 06:58:11;;;;;;;6.03;3.20;;;11.00;87.20;;;;;;5090526;28;20837;-77
2023/02/18 07:00:37;;;;;;;5.40;3.13;;;11.00;87.20;;;;;;5093977;28;20114;-79
2023/02/18 07:03:03;;;;;;;5.82;3.42;;;11.00;87.20;;;;;;5091195;28;20135;-77
2023/02/18 07:05:29;;;;;;;6.20;3.30;;;11.00;87.20;;;;;;5089778;28;20077;-78
2023/02/18 07:07:54;;;;;;;6.20;3.50;;;11.00;87.20;;;;;;5109141;28;20031;-75
2023/02/18 07:10:20;;;;;;;6.85;3.85;;;11.00;87.20;;;;;;5089282;28;20028;-76
2023/02/18 07:12:45;;;;;;;7.03;4.13;;;11.00;87.20;;;;;;5107486;28;20069;-76
2023/02/18 07:15:11;;;;;;;7.15;3.95;;;11.00;87.20;;;;;;5107368;28;20082;-76
2023/02/18 07:17:37;;;;;;;8.68;5.25;;;11.00;87.20;;;;;;5090906;28;20537;-78
2023/02/18 07:20:03;;;;;;;9.07;5.47;;;11.00;87.30;;;;;;5108478;28;20076;-79
2023/02/18 07:22:29;;;;;;;11.18;6.45;;;11.00;87.20;;;;;;5091100;28;20024;-78
2023/02/18 07:24:54;;;;;;;9.45;5.82;;;11.00;87.20;;;;;;5091238;28;20499;-79
2023/02/18 07:27:21;;;;;;;11.82;7.20;;;11.00;87.30;;;;;;5108802;28;20035;-78
2023/02/18 07:29:46;;;;;;;12.88;7.60;;;11.00;87.20;;;;;;5109109;28;20027;-80
2023/02/18 07:32:13;;;;;;;12.77;8.25;;;11.00;87.30;;;;;;5090848;28;20027;-78
2023/02/18 07:34:39;;;;;;;12.52;7.63;;;11.00;87.30;;;;;;5090661;28;20564;-77
2023/02/18 07:37:08;;;;;;;12.27;7.65;;;11.00;87.30;;;;;;5091075;28;20027;-77
2023/02/18 07:39:43;;;;;;;12.43;7.57;;;11.00;87.30;;;;;;5089005;28;20412;-77
2023/02/18 07:42:10;;;;;;;13.65;8.23;;;11.00;87.30;;;;;;5090528;28;20563;-79
2023/02/18 07:44:37;;;;;;;13.82;8.57;;;11.00;87.30;;;;;;5091004;28;20062;-78
2023/02/18 07:47:03;;;;;;;13.95;9.30;;;11.00;87.30;;;;;;5108642;28;20027;-80
2023/02/18 07:49:29;;;;;;;13.52;8.73;;;11.00;87.30;;;;;;5090501;28;20381;-77
2023/02/18 07:51:55;;;;;;;13.73;8.75;;;11.00;87.30;;;;;;5109107;28;20031;-77
2023/02/18 07:54:20;;;;;;;14.38;9.30;;;11.30;87.50;;;;;;5109388;28;20517;-77
2023/02/18 07:56:46;;;;;;;12.23;8.13;;;11.00;87.30;;;;;;5109055;28;20682;-77
2023/02/18 07:59:12;;;;;;;16.90;9.88;;;11.00;87.30;;;;;;5090742;28;20019;-79
2023/02/18 08:01:38;;;;;;;13.68;8.70;;;11.00;87.30;;;;;;5090413;28;20119;-77
2023/02/18 08:04:04;;;;;;;13.73;8.75;;;11.00;87.30;;;;;;5107377;28;20023;-76
2023/02/18 08:06:39;;;;;;;15.15;9.77;;;11.00;87.30;;;;;;5091173;28;20034;-79
2023/02/18 08:09:05;;;;;;;15.88;9.57;;;11.00;87.30;;;;;;5090789;28;20124;-80
2023/02/18 08:11:32;;;;;;;14.40;9.43;;;11.00;87.40;;;;;;5098725;28;20036;-77
2023/02/18 08:13:57;;;;;;;14.13;9.60;;;11.00;87.40;;;;;;5069723;28;20594;-76
2023/02/18 08:16:23;;;;;;;14.02;9.15;;;11.10;87.40;;;;;;5070244;28;20024;-78
2023/02/18 08:18:50;;;;;;;15.18;9.90;;;11.00;87.40;;;;;;5087349;28;20039;-77
2023/02/18 08:21:17;;;;;;;15.32;9.55;;;11.00;87.40;;;;;;5068082;28;20461;-76
2023/02/18 08:23:43;;;;;;;15.40;10.35;;;11.00;87.30;;;;;;5068975;28;20035;-77
2023/02/18 08:26:10;;;;;;;15.10;9.93;;;11.00;87.40;;;;;;5067039;28;20021;-76
2023/02/18 08:28:35;;;;;;;14.18;9.35;;;11.00;87.40;;;;;;5067867;28;20024;-79
2023/02/18 08:31:01;;;;;;;14.60;9.73;;;11.00;87.40;;;;;;5067994;28;20028;-78
2023/02/18 08:33:27;;;;;;;14.63;9.23;;;11.00;87.30;;;;;;5070439;28;20054;-79
2023/02/18 08:35:53;;;;;;;15.82;10.20;;;11.00;87.40;;;;;;5072671;28;20155;-77
2023/02/18 08:38:20;;;;;;;15.88;10.25;;;11.00;87.40;;;;;;5086971;28;20025;-77
2023/02/18 08:40:46;;;;;;;15.25;9.98;;;11.00;88.10;;;;;;5069012;28;20024;-76
2023/02/18 08:43:12;;;;;;;15.30;9.32;;;11.00;88.00;;;;;;5069266;28;20032;-77
2023/02/18 08:45:38;;;;;;;15.65;9.57;;;11.00;88.60;;;;;;5086458;28;20027;-77
2023/02/18 08:48:06;;;;;;;13.43;8.90;;;11.00;89.00;;;;;;5068863;28;20051;-77
2023/02/18 08:50:31;;;;;;;14.13;9.30;;;11.00;89.20;;;;;;5069414;28;20028;-77
2023/02/18 08:53:00;;;;;;;15.13;9.40;;;11.00;88.90;;;;;;5087339;28;20062;-77
2023/02/18 08:55:26;;;;;;;14.18;8.93;;;11.00;88.70;;;;;;5067818;28;20035;-77
2023/02/18 08:57:52;;;;;;;12.77;8.70;;;11.00;88.60;;;;;;5087137;28;20032;-77
2023/02/18 09:00:18;;;;;;;13.05;8.48;;;11.10;88.40;;;;;;5086892;28;20032;-77
2023/02/18 09:02:43;;;;;;;13.18;9.02;;;11.00;88.30;;;;;;5086425;28;20032;-76
2023/02/18 09:05:09;;;;;;;13.63;9.27;;;11.00;88.30;;;;;;5088178;28;20051;-77
2023/02/18 09:07:36;;;;;;;13.02;8.70;;;11.00;88.10;;;;;;5087631;28;20032;-78
2023/02/18 09:10:02;;;;;;;12.98;8.88;;;11.10;88.20;;;;;;5069057;28;20035;-78
2023/02/18 09:12:28;;;;;;;14.10;8.90;;;11.00;87.90;;;;;;5068440;28;20028;-77
2023/02/18 09:14:53;;;;;;;13.50;9.13;;;11.00;88.00;;;;;;5070035;28;20024;-77
2023/02/18 09:17:19;;;;;;;13.63;8.63;;;11.10;88.00;;;;;;5090346;28;20362;-75
2023/02/18 09:19:45;;;;;;;12.43;8.50;;;11.00;87.90;;;;;;5076347;28;20030;-78
2023/02/18 09:22:10;;;;;;;14.27;8.02;;;11.00;87.90;;;;;;5095204;28;20032;-78
2023/02/18 09:24:37;;;;;;;13.57;9.07;;;11.00;87.90;;;;;;5079259;28;20032;-80
2023/02/18 09:27:03;;;;;;;13.38;8.18;;;11.00;87.80;;;;;;5096329;28;20100;-79
2023/02/18 09:29:29;;;;;;;12.60;8.45;;;11.00;87.80;;;;;;5079304;28;20056;-79
2023/02/18 09:31:54;;;;;;;13.07;7.90;;;11.00;87.80;;;;;;5079508;28;20031;-78
2023/02/18 09:34:20;;;;;;;11.73;7.60;;;11.10;87.80;;;;;;5081844;28;20396;-79
2023/02/18 09:36:45;;;;;;;11.73;7.88;;;11.10;87.80;;;;;;5082201;28;20075;-78
2023/02/18 09:39:14;;;;;;;12.23;7.80;;;11.10;87.70;;;;;;5078421;28;20097;-79
2023/02/18 09:41:52;;;;;;;12.60;7.95;;;11.10;87.70;;;;;;5096189;28;20032;-79
2023/02/18 09:44:35;;;;;;;11.10;7.35;;;11.10;87.70;;;;;;5077222;28;20024;-78
2023/02/18 09:47:22;;;;;;;10.77;7.20;;;11.10;87.70;;;;;;5079562;28;20031;-79
2023/02/18 09:49:53;;;;;;;12.20;7.82;;;11.10;87.70;;;;;;5089437;28;20028;-79
2023/02/18 09:52:28;;;;;;;12.52;8.10;;;11.10;87.70;;;;;;5083996;28;20027;-79
2023/02/18 09:54:55;;;;;;;11.80;7.22;;;11.10;87.60;;;;;;5116808;28;20024;-79
2023/02/18 09:57:43;;;;;;;11.45;7.45;;;11.10;87.60;;;;;;5117897;28;20074;-78
2023/02/18 10:00:14;;;;;;;11.23;7.32;;;11.10;87.60;;;;;;5090846;28;20508;-80
2023/02/18 10:02:52;;;;;;;10.73;6.85;;;11.10;87.60;;;;;;5098032;28;20035;-79
2023/02/18 10:05:18;;;;;;;10.63;6.55;;;11.10;87.50;;;;;;5117648;28;20491;-80
2023/02/18 10:07:45;;;;;;;10.70;6.88;;;11.10;87.40;;;;;;5082786;28;20059;-76
2023/02/18 10:10:27;;;;;;;11.05;7.03;;;11.10;87.50;;;;;;5080001;28;20069;-76
2023/02/18 10:12:54;;;;;;;9.95;6.47;;;11.10;87.50;;;;;;5110223;28;20106;-79
2023/02/18 10:15:24;;;;;;;11.30;6.53;;;11.10;87.50;;;;;;5077505;28;20020;-76
2023/02/18 10:17:51;;;;;;;10.15;6.88;;;11.10;87.40;;;;;;5094036;28;20103;-77
2023/02/18 10:20:20;;;;;;;10.65;6.22;;;11.10;87.40;;;;;;5097783;28;20179;-78
2023/02/18 10:22:46;;;;;;;10.40;6.10;;;11.10;87.40;;;;;;5096552;28;20384;-78
2023/02/18 10:25:18;;;;;;;10.30;6.55;;;11.10;87.40;;;;;;5090777;28;20030;-78
2023/02/18 10:27:45;;;;;;;10.30;6.50;;;11.10;87.40;;;;;;5093586;28;20047;-79
2023/02/18 10:30:13;;;;;;;9.63;6.18;;;11.10;87.40;;;;;;5096450;28;20035;-79
2023/02/18 10:32:43;;;;;;;10.07;6.50;;;11.10;87.40;;;;;;5101352;28;20692;-79
2023/02/18 10:35:24;;;;;;;10.73;6.35;;;11.10;87.40;;;;;;5093383;28;20028;-79
2023/02/18 10:38:20;;;;;;;9.70;5.78;;;11.10;87.40;;;;;;5082318;28;20023;-78
2023/02/18 10:41:27;;;;;;;10.82;6.53;;;11.10;87.50;;;;;;5109198;28;20027;-79
2023/02/18 10:44:04;;;;;;;9.15;5.65;;;11.10;87.50;;;;;;5096630;28;20073;-80
2023/02/18 10:46:30;;;;;;;9.57;5.93;;;11.10;87.40;;;;;;5113747;28;20058;-79
2023/02/18 10:49:27;;;;;;;11.27;6.00;;;11.10;87.40;;;;;;5114873;28;20062;-79
2023/02/18 10:51:56;;;;;;;9.15;5.40;;;11.10;87.50;;;;;;5097238;28;20076;-80
2023/02/18 10:54:26;;;;;;;8.43;4.60;;;11.20;87.50;;;;;;5114571;28;20032;-79
2023/02/18 10:56:57;;;;;;;15.00;4.43;;;11.20;88.00;;;;;;5093181;28;20020;-79
2023/02/18 10:59:26;;;;;;;10.77;4.90;;;11.20;89.00;;;;;;5094424;28;20027;-80
2023/02/18 11:01:57;;;;;;;9.95;4.53;;;11.20;88.70;;;;;;5094962;28;20389;-76
2023/02/18 11:04:32;;;;;;;14.15;4.30;;;11.20;88.70;;;;;;5082812;28;20035;-77
2023/02/18 11:07:04;;;;;;;12.10;3.65;;;11.20;88.40;;;;;;5112022;28;20039;-79
2023/02/18 11:09:52;;;;;;;12.35;4.28;;;11.30;88.10;;;;;;5095863;28;20096;-81
2023/02/18 11:12:28;;;;;;;11.00;4.35;;;11.30;87.80;;;;;;5113919;28;20035;-79
2023/02/18 11:15:06;;;;;;;12.13;3.83;;;11.40;87.50;;;;;;5094919;28;20055;-79
2023/02/18 11:17:33;;;;;;;12.60;3.92;;;11.30;87.20;;;;;;5095087;28;20073;-79
2023/02/18 11:20:01;;;;;;;8.30;4.05;;;11.30;87.10;;;;;;5097808;28;20362;-79
2023/02/18 11:22:32;;;;;;;8.77;3.90;;;11.40;87.00;;;;;;5075536;28;20016;-80
2023/02/18 11:25:00;;;;;;;8.25;3.88;;;11.40;86.80;;;;;;5093648;28;20035;-78
2023/02/18 11:27:42;;;;;;;7.88;3.60;;;11.30;86.80;;;;;;5092429;28;20107;-80
2023/02/18 11:30:37;;;;;;;8.63;4.00;;;11.40;86.80;;;;;;5074657;28;20480;-79
2023/02/18 11:33:13;;;;;;;7.25;3.80;;;11.40;86.70;;;;;;5074425;28;20028;-80
2023/02/18 11:35:38;;;;;;;7.65;3.60;;;11.40;86.70;;;;;;5092514;28;20020;-78
2023/02/18 11:38:33;;;;;;;7.55;3.47;;;11.40;86.90;;;;;;5091805;28;20016;-79
2023/02/18 11:41:10;;;;;;;7.75;3.40;;;11.40;86.60;;;;;;5074612;28;20020;-79
2023/02/18 11:43:41;;;;;;;8.30;3.90;;;11.40;86.80;;;;;;5097499;28;20038;-79
2023/02/18 11:46:15;;;;;;;8.67;3.63;;;11.40;86.80;;;;;;5090485;28;20023;-81
2023/02/18 11:48:41;;;;;;;9.65;3.60;;;11.40;86.80;;;;;;5095350;28;20373;-83
2023/02/18 11:51:29;;;;;;;9.70;3.58;;;11.50;86.90;;;;;;5100112;28;20035;-82
2023/02/18 11:54:01;;;;;;;10.68;4.00;;;11.40;86.80;;;;;;5099131;28;20024;-79
2023/02/18 11:56:33;;;;;;;7.90;3.35;;;11.40;86.80;;;;;;5098837;28;20111;-82
2023/02/18 11:59:00;;;;;;;7.53;3.60;;;11.40;86.90;;;;;;5079075;28;20056;-81
2023/02/18 12:01:42;;;;;;;8.63;3.20;;;11.40;86.80;;;;;;5089942;28;20027;-81
2023/02/18 12:04:13;;;;;;;9.05;3.10;;;11.40;86.90;;;;;;5115744;28;20030;-81
2023/02/18 12:06:47;;;;;;;8.35;3.58;;;11.50;86.90;;;;;;5096151;28;20024;-83
2023/02/18 12:09:21;;;;;;;7.35;3.17;;;11.40;86.80;;;;;;5098986;28;20020;-82
2023/02/18 12:12:00;;;;;;;7.15;3.15;;;11.40;86.90;;;;;;5098427;28;20035;-82
2023/02/18 12:14:26;;;;;;;7.65;3.20;;;11.40;86.90;;;;;;5115271;28;20027;-82
2023/02/18 12:17:20;;;;;;;8.55;2.95;;;11.40;87.00;;;;;;5116449;28;20044;-82
2023/02/18 12:20:15;;;;;;;8.02;3.05;;;11.40;87.00;;;;;;5097879;28;20022;-82
2023/02/18 12:22:53;;;;;;;8.80;3.10;;;11.40;87.10;;;;;;5097383;28;20020;-82
2023/02/18 12:25:25;;;;;;;7.57;3.22;;;11.40;87.10;;;;;;5097264;28;20031;-82
2023/02/18 12:27:55;;;;;;;;;;;11.40;87.20;;;;;;5096588;28;20024;-79
2023/02/18 12:30:39;;;;;;;6.78;2.78;;;11.40;87.20;;;;;;5086231;28;19912;-81
2023/02/18 12:33:36;;;;;;;6.00;2.80;;;11.40;87.30;;;;;;5097982;28;20063;-83
2023/02/18 12:36:20;;;;;;;6.05;2.60;;;11.40;87.30;;;;;;5097612;28;20073;-83
2023/02/18 12:39:11;;;;;;;6.93;2.45;;;11.40;87.30;;;;;;5099942;28;20046;-83
2023/02/18 12:41:57;;;;;;;6.65;2.80;;;11.40;87.40;;;;;;5118401;28;20094;-82
2023/02/18 12:44:43;;;;;;;10.80;3.05;;;11.40;87.40;;;;;;5118023;28;20035;-81
2023/02/18 12:47:58;;;;;;;5.63;2.58;;;11.40;87.40;;;;;;5099042;28;20561;-82
2023/02/18 12:50:44;;;;;;;6.38;2.60;;;11.40;87.40;;;;;;5099010;28;20024;-81
2023/02/18 12:53:41;;;;;;;5.63;2.80;;;11.30;87.40;;;;;;5099181;28;20028;-82
2023/02/18 12:56:29;;;;;;;5.35;2.33;;;11.30;87.80;;;;;;5086141;28;20016;-82
2023/02/18 12:59:13;;;;;;;6.47;2.45;;;11.40;87.30;;;;;;5078081;28;20472;-82
2023/02/18 13:01:50;;;;;;;6.07;2.70;;;11.30;87.30;;;;;;5096103;28;20030;-79
2023/02/18 13:04:44;;;;;;;5.13;2.30;;;11.30;87.40;;;;;;5077306;28;20115;-81
2023/02/18 13:07:31;;;;;;;5.55;2.30;;;11.30;87.40;;;;;;5076064;28;20523;-80